createdAt,value
2022-10-24T00:01:52.700Z,100620.63
2022-10-24T00:04:56.518Z,100625.16
2022-10-24T00:08:01.562Z,100634.00
2022-10-24T00:11:10.739Z,100627.31
2022-10-24T00:14:14.871Z,100623.00
2022-10-24T00:17:18.591Z,100625.44
2022-10-24T00:20:22.387Z,100632.91
2022-10-24T00:23:27.507Z,100636.94
2022-10-24T00:26:31.289Z,100641.97
2022-10-24T00:29:34.947Z,100635.38
2022-10-24T00:32:38.530Z,100635.38
2022-10-24T00:35:43.740Z,100642.41
2022-10-24T00:38:49.610Z,100640.41
2022-10-24T00:41:54.275Z,100629.25
2022-10-24T00:44:57.837Z,100624.75
2022-10-24T00:48:01.880Z,100628.31
2022-10-24T00:51:12.188Z,100629.44
2022-10-24T00:54:18.298Z,100624.59
2022-10-24T00:57:28.870Z,100622.13
2022-10-24T01:00:35.805Z,100616.69
2022-10-24T01:03:39.785Z,100625.44
2022-10-24T01:06:59.160Z,100619.19
2022-10-24T01:10:26.865Z,100623.13
2022-10-24T01:13:46.081Z,100618.72
2022-10-24T01:16:55.634Z,100618.66
2022-10-24T01:20:42.342Z,100617.00
2022-10-24T01:24:29.027Z,100612.59
2022-10-24T01:27:52.657Z,100623.38
2022-10-24T01:31:11.337Z,100615.94
2022-10-24T01:34:27.024Z,100607.72
2022-10-24T01:37:40.710Z,100602.53
2022-10-24T01:40:54.422Z,100600.88
2022-10-24T01:44:06.474Z,100600.88
2022-10-24T01:47:18.884Z,100588.47
2022-10-24T01:50:26.097Z,100593.13
2022-10-24T01:53:31.837Z,100608.25
2022-10-24T01:56:35.418Z,100598.31
2022-10-24T01:59:46.034Z,100594.53
2022-10-24T02:02:57.977Z,100580.81
2022-10-24T02:06:11.055Z,100587.25
2022-10-24T02:09:19.334Z,100587.25
2022-10-24T02:12:25.598Z,100580.56
2022-10-24T02:15:35.908Z,100578.50
2022-10-24T02:18:42.042Z,100570.50
2022-10-24T02:21:55.023Z,100574.06
2022-10-24T02:25:08.240Z,100568.13
2022-10-24T02:28:18.820Z,100561.59
2022-10-24T02:31:26.969Z,100551.59
2022-10-24T02:34:37.023Z,100556.25
2022-10-24T02:37:47.575Z,100549.34
2022-10-24T02:40:54.776Z,100543.25
2022-10-24T02:44:02.375Z,100537.31
2022-10-24T02:47:09.184Z,100544.63
2022-10-24T02:50:14.910Z,100528.59
2022-10-24T02:53:26.159Z,100528.75
2022-10-24T02:56:30.994Z,100525.09
2022-10-24T02:59:34.822Z,100523.34
2022-10-24T03:02:38.511Z,100533.31
2022-10-24T03:05:43.471Z,100534.78
2022-10-24T03:08:47.274Z,100523.16
2022-10-24T03:11:51.440Z,100523.41
2022-10-24T03:14:55.034Z,100511.63
2022-10-24T03:17:58.710Z,100505.41
2022-10-24T03:21:03.972Z,100500.47
2022-10-24T03:27:17.583Z,100492.81
2022-10-24T03:30:21.455Z,100505.56
2022-10-24T03:33:25.470Z,100509.59
2022-10-24T03:36:30.454Z,100493.19
2022-10-24T03:39:34.503Z,100489.47
2022-10-24T03:42:38.192Z,100481.59
2022-10-24T03:45:42.065Z,100484.06
2022-10-24T03:48:45.566Z,100481.50
2022-10-24T03:51:50.509Z,100494.19
2022-10-24T03:54:54.052Z,100488.25
2022-10-24T03:57:57.976Z,100485.31
2022-10-24T04:01:01.782Z,100479.03
2022-10-24T04:04:05.979Z,100489.25
2022-10-24T04:07:10.894Z,100489.56
2022-10-24T04:10:14.851Z,100488.22
2022-10-24T04:13:18.428Z,100486.38
2022-10-24T04:16:24.122Z,100478.63
2022-10-24T04:19:27.691Z,100482.34
2022-10-24T04:22:34.555Z,100480.19
2022-10-24T04:25:38.246Z,100485.06
2022-10-24T04:28:42.091Z,100477.50
2022-10-24T04:31:45.633Z,100473.66
2022-10-24T04:34:50.109Z,100478.47
2022-10-24T04:37:55.336Z,100473.72
2022-10-24T04:40:58.979Z,100474.50
2022-10-24T04:44:02.619Z,100478.25
2022-10-24T04:47:07.009Z,100485.13
2022-10-24T04:50:11.515Z,100470.84
2022-10-24T04:53:17.311Z,100472.03
2022-10-24T04:56:21.346Z,100470.72
2022-10-24T04:59:25.383Z,100473.66
2022-10-24T05:02:29.114Z,100473.78
2022-10-24T05:05:33.168Z,100472.41
2022-10-24T05:08:38.317Z,100474.94
2022-10-24T05:11:42.129Z,100471.88
2022-10-24T05:14:47.214Z,100468.50
2022-10-24T05:17:50.827Z,100473.13
2022-10-24T05:20:57.927Z,100473.94
2022-10-24T05:24:03.066Z,100482.94
2022-10-24T05:27:06.611Z,100482.56
2022-10-24T05:30:11.727Z,100482.47
2022-10-24T05:33:16.408Z,100480.59
2022-10-24T05:36:20.031Z,100481.97
2022-10-24T05:39:25.080Z,100482.66
2022-10-24T05:42:28.685Z,100482.03
2022-10-24T05:45:32.207Z,100473.91
2022-10-24T05:48:36.683Z,100475.38
2022-10-24T05:51:40.228Z,100467.00
2022-10-24T05:54:55.194Z,100457.09
2022-10-24T05:58:06.507Z,100465.88
2022-10-24T06:01:10.134Z,100465.91
2022-10-24T06:04:14.076Z,100463.75
2022-10-24T06:07:17.711Z,100471.41
2022-10-24T06:10:23.424Z,100471.19
2022-10-24T06:13:31.332Z,100473.44
2022-10-24T06:16:37.499Z,100470.72
2022-10-24T06:19:41.845Z,100474.91
2022-10-24T06:22:46.700Z,100473.81
2022-10-24T06:25:51.780Z,100475.38
2022-10-24T06:28:56.512Z,100482.03
2022-10-24T06:32:00.309Z,100474.28
2022-10-24T06:35:04.892Z,100481.47
2022-10-24T06:38:08.588Z,100490.38
2022-10-24T06:41:17.149Z,100484.00
2022-10-24T06:44:20.984Z,100489.13
2022-10-24T06:47:24.766Z,100487.53
2022-10-24T06:50:28.674Z,100484.50
2022-10-24T06:53:33.568Z,100492.69
2022-10-24T06:56:38.739Z,100494.41
2022-10-24T06:59:42.431Z,100495.66
2022-10-24T07:02:46.412Z,100493.16
2022-10-24T07:05:50.385Z,100499.50
2022-10-24T07:08:56.477Z,100503.84
2022-10-24T07:12:01.461Z,100519.56
2022-10-24T07:15:06.039Z,100516.66
2022-10-24T07:18:15.883Z,100518.28
2022-10-24T07:21:23.528Z,100527.19
2022-10-24T07:24:28.520Z,100521.91
2022-10-24T07:27:34.423Z,100528.81
2022-10-24T07:30:38.615Z,100528.41
2022-10-24T07:33:42.978Z,100523.75
2022-10-24T07:36:46.773Z,100525.03
2022-10-24T07:39:50.354Z,100523.94
2022-10-24T07:42:55.422Z,100523.16
2022-10-24T07:45:59.084Z,100522.16
2022-10-24T07:49:02.751Z,100519.25
2022-10-24T07:52:07.100Z,100523.16
2022-10-24T07:55:11.456Z,100521.97
2022-10-24T07:58:17.032Z,100523.84
2022-10-24T08:01:23.960Z,100518.81
2022-10-24T08:04:29.146Z,100517.72
2022-10-24T08:07:32.856Z,100517.63
2022-10-24T08:10:36.770Z,100515.97
2022-10-24T08:13:42.559Z,100517.34
2022-10-24T08:16:46.844Z,100513.78
2022-10-24T08:19:50.783Z,100506.53
2022-10-24T08:22:54.426Z,100499.81
2022-10-24T08:25:58.158Z,100499.81
2022-10-24T08:29:05.950Z,100496.47
2022-10-24T08:32:09.856Z,100504.38
2022-10-24T08:35:18.813Z,100488.91
2022-10-24T08:38:22.477Z,100491.72
2022-10-24T08:41:34.049Z,100495.94
2022-10-24T08:44:42.468Z,100486.50
2022-10-24T08:47:58.259Z,100477.16
2022-10-24T08:51:13.899Z,100474.16
2022-10-24T08:54:25.184Z,100473.22
2022-10-24T09:00:47.479Z,100468.28
2022-10-24T09:03:56.878Z,100466.38
2022-10-24T09:07:02.814Z,100463.47
2022-10-24T09:10:15.862Z,100470.91
2022-10-24T09:13:19.806Z,100469.56
2022-10-24T09:16:27.699Z,100472.69
2022-10-24T09:19:33.812Z,100468.03
2022-10-24T09:22:39.541Z,100476.59
2022-10-24T09:25:50.611Z,100467.84
2022-10-24T09:28:55.874Z,100461.22
2022-10-24T09:32:01.564Z,100471.59
2022-10-24T09:35:10.787Z,100471.69
2022-10-24T09:38:34.673Z,100471.00
2022-10-24T09:41:38.292Z,100471.25
2022-10-24T09:44:43.878Z,100476.19
2022-10-24T09:47:57.910Z,100474.50
2022-10-24T09:51:03.442Z,100475.09
2022-10-24T09:54:28.471Z,100475.03
2022-10-24T09:57:40.876Z,100465.38
2022-10-24T10:00:44.630Z,100458.81
2022-10-24T10:04:08.794Z,100469.66
2022-10-24T10:07:17.932Z,100470.91
2022-10-24T10:10:30.976Z,100461.19
2022-10-24T10:13:45.651Z,100464.78
2022-10-24T10:17:02.146Z,100485.47
2022-10-24T10:20:10.011Z,100475.59
2022-10-24T10:23:28.536Z,100494.16
2022-10-24T10:26:45.679Z,100486.81
2022-10-24T10:29:49.370Z,100480.47
2022-10-24T10:33:18.118Z,100485.69
2022-10-24T10:36:30.572Z,100495.09
2022-10-24T10:40:02.883Z,100487.44
2022-10-24T10:43:35.153Z,100489.78
2022-10-24T10:46:54.567Z,100492.00
2022-10-24T10:50:00.042Z,100492.66
2022-10-24T10:53:26.989Z,100481.06
2022-10-24T10:56:42.500Z,100489.78
2022-10-24T10:59:58.476Z,100476.59
2022-10-24T11:03:18.413Z,100494.44
2022-10-24T11:06:40.338Z,100488.00
2022-10-24T11:09:50.143Z,100481.81
2022-10-24T11:12:57.153Z,100488.97
2022-10-24T11:16:08.092Z,100501.81
2022-10-24T11:19:24.691Z,100501.00
2022-10-24T11:22:38.648Z,100504.00
2022-10-24T11:25:50.076Z,100493.72
2022-10-24T11:29:02.315Z,100503.31
2022-10-24T11:32:19.208Z,100503.56
2022-10-24T11:35:30.079Z,100505.63
2022-10-24T11:38:37.615Z,100508.88
2022-10-24T11:41:56.685Z,100522.84
2022-10-24T11:45:08.530Z,100526.78
2022-10-24T11:48:21.119Z,100534.47
2022-10-24T11:51:34.111Z,100530.22
2022-10-24T11:54:50.991Z,100519.00
2022-10-24T11:58:00.159Z,100525.34
2022-10-24T12:01:33.573Z,100521.53
2022-10-24T12:05:02.859Z,100524.84
2022-10-24T12:08:51.605Z,100530.69
2022-10-24T12:12:15.505Z,100527.31
2022-10-24T12:15:47.627Z,100520.94
2022-10-24T12:18:59.947Z,100522.84
2022-10-24T12:22:06.557Z,100530.84
2022-10-24T12:25:23.793Z,100527.63
2022-10-24T12:28:28.187Z,100528.28
2022-10-24T12:31:35.859Z,100534.25
2022-10-24T12:34:49.334Z,100529.47
2022-10-24T12:37:54.117Z,100512.66
2022-10-24T12:41:06.583Z,100531.91
2022-10-24T12:44:41.184Z,100537.22
2022-10-24T12:48:33.801Z,100531.59
2022-10-24T12:51:39.270Z,100538.03
2022-10-24T12:54:45.076Z,100542.91
2022-10-24T12:57:49.226Z,100542.09
2022-10-24T13:00:58.161Z,100532.13
2022-10-24T13:04:56.258Z,100544.09
2022-10-24T13:08:21.767Z,100539.78
2022-10-24T13:11:49.312Z,100543.13
2022-10-24T13:15:21.640Z,100545.69
2022-10-24T13:18:48.159Z,100537.06
2022-10-24T13:21:55.928Z,100554.88
2022-10-24T13:25:01.721Z,100558.22
2022-10-24T13:28:43.488Z,100553.34
2022-10-24T13:31:52.276Z,100554.94
2022-10-24T13:34:57.829Z,100564.41
2022-10-24T13:38:06.999Z,100562.09
2022-10-24T13:41:15.751Z,100553.16
2022-10-24T13:44:43.757Z,100555.56
2022-10-24T13:47:55.599Z,100568.94
2022-10-24T13:51:09.475Z,100577.06
2022-10-24T13:54:23.009Z,100571.88
2022-10-24T13:57:36.078Z,100568.69
2022-10-24T14:00:44.577Z,100569.69
2022-10-24T14:03:50.917Z,100565.53
2022-10-24T14:07:01.010Z,100574.06
2022-10-24T14:10:17.059Z,100572.50
2022-10-24T14:13:24.132Z,100577.44
2022-10-24T14:16:30.464Z,100576.38
2022-10-24T14:19:38.104Z,100571.94
2022-10-24T14:22:43.189Z,100570.63
2022-10-24T14:25:58.258Z,100577.53
2022-10-24T14:29:01.891Z,100570.63
2022-10-24T14:32:09.074Z,100561.31
2022-10-24T14:35:15.157Z,100573.75
2022-10-24T14:38:20.911Z,100575.94
2022-10-24T14:41:31.367Z,100580.28
2022-10-24T14:44:37.446Z,100591.50
2022-10-24T14:47:53.828Z,100600.50
2022-10-24T14:51:04.915Z,100603.69
2022-10-24T14:54:20.400Z,100601.13
2022-10-24T14:57:25.667Z,100611.34
2022-10-24T15:00:39.424Z,100610.00
2022-10-24T15:03:54.058Z,100616.44
2022-10-24T15:06:58.776Z,100608.31
2022-10-24T15:10:24.631Z,100605.56
2022-10-24T15:13:34.858Z,100618.41
2022-10-24T15:16:42.246Z,100617.38
2022-10-24T15:19:48.538Z,100633.78
2022-10-24T15:22:57.089Z,100635.78
2022-10-24T15:26:08.864Z,100630.19
2022-10-24T15:29:23.040Z,100643.00
2022-10-24T15:32:26.704Z,100648.25
2022-10-24T15:35:35.037Z,100654.13
2022-10-24T15:38:40.447Z,100650.41
2022-10-24T15:41:45.044Z,100656.72
2022-10-24T15:44:50.099Z,100671.34
2022-10-24T15:47:54.383Z,100675.44
2022-10-24T15:50:59.487Z,100676.28
2022-10-24T15:54:03.019Z,100679.38
2022-10-24T15:57:06.589Z,100681.84
2022-10-24T16:00:13.806Z,100694.44
2022-10-24T16:03:22.594Z,100688.22
2022-10-24T16:06:28.140Z,100702.84
2022-10-24T16:09:31.796Z,100700.81
2022-10-24T16:12:35.400Z,100701.59
2022-10-24T16:15:42.229Z,100707.53
2022-10-24T16:18:45.991Z,100711.44
2022-10-24T16:21:49.652Z,100713.91
2022-10-24T16:24:53.536Z,100705.06
2022-10-24T16:27:58.730Z,100706.06
2022-10-24T16:31:05.123Z,100710.72
2022-10-24T16:34:09.001Z,100708.78
2022-10-24T16:37:12.938Z,100711.34
2022-10-24T16:40:16.586Z,100706.69
2022-10-24T16:43:21.705Z,100712.63
2022-10-24T16:46:28.739Z,100720.72
2022-10-24T16:49:32.903Z,100719.97
2022-10-24T16:52:36.497Z,100718.94
2022-10-24T16:55:40.115Z,100722.59
2022-10-24T16:58:44.512Z,100720.81
2022-10-24T17:01:50.019Z,100735.00
2022-10-24T17:04:53.876Z,100735.34
2022-10-24T17:07:59.485Z,100725.09
2022-10-24T17:11:03.135Z,100724.59
2022-10-24T17:14:09.721Z,100736.31
2022-10-24T17:17:14.808Z,100733.22
2022-10-24T17:20:19.270Z,100745.53
2022-10-24T17:23:23.493Z,100752.94
2022-10-24T17:26:28.099Z,100747.66
2022-10-24T17:29:34.865Z,100758.41
2022-10-24T17:32:40.069Z,100762.00
2022-10-24T17:35:51.802Z,100771.22
2022-10-24T17:39:07.666Z,100779.66
2022-10-24T17:42:14.309Z,100772.28
2022-10-24T17:45:21.331Z,100780.38
2022-10-24T17:48:29.510Z,100783.56
2022-10-24T17:51:37.191Z,100783.16
2022-10-24T17:54:44.851Z,100790.53
2022-10-24T17:57:49.907Z,100791.03
2022-10-24T18:00:53.542Z,100798.22
2022-10-24T18:03:58.714Z,100795.75
2022-10-24T18:07:02.319Z,100798.63
2022-10-24T18:10:07.059Z,100796.91
2022-10-24T18:13:10.923Z,100800.34
2022-10-24T18:16:18.199Z,100797.31
2022-10-24T18:19:23.330Z,100794.59
2022-10-24T18:22:27.131Z,100802.66
2022-10-24T18:25:30.985Z,100807.44
2022-10-24T18:28:37.987Z,100810.47
2022-10-24T18:31:41.579Z,100812.81
2022-10-24T18:34:46.525Z,100810.75
2022-10-24T18:37:50.255Z,100822.72
2022-10-24T18:40:54.635Z,100820.38
2022-10-24T18:44:01.109Z,100826.09
2022-10-24T18:47:08.716Z,100820.97
2022-10-24T18:50:18.765Z,100834.53
2022-10-24T18:53:28.316Z,100837.53
2022-10-24T18:56:32.424Z,100836.22
2022-10-24T18:59:36.473Z,100843.28
2022-10-24T19:02:49.793Z,100842.47
2022-10-24T19:06:06.283Z,100840.06
2022-10-24T19:09:18.422Z,100835.72
2022-10-24T19:12:22.296Z,100844.19
2022-10-24T19:15:28.018Z,100835.72
2022-10-24T19:18:35.043Z,100844.75
2022-10-24T19:21:40.043Z,100846.75
2022-10-24T19:24:43.789Z,100842.75
2022-10-24T19:27:49.342Z,100840.13
2022-10-24T19:30:54.047Z,100850.63
2022-10-24T19:33:57.630Z,100851.72
2022-10-24T19:37:03.816Z,100860.44
2022-10-24T19:40:09.775Z,100851.81
2022-10-24T19:43:13.906Z,100855.94
2022-10-24T19:46:20.287Z,100857.94
2022-10-24T19:49:24.204Z,100861.47
2022-10-24T19:52:29.250Z,100861.56
2022-10-24T19:55:37.209Z,100861.47
2022-10-24T19:58:42.303Z,100857.41
2022-10-24T20:01:46.146Z,100857.63
2022-10-24T20:04:49.996Z,100865.31
2022-10-24T20:07:55.023Z,100864.56
2022-10-24T20:10:58.815Z,100878.97
2022-10-24T20:14:02.510Z,100879.00
2022-10-24T20:17:06.107Z,100884.34
2022-10-24T20:20:11.393Z,100883.19
2022-10-24T20:23:16.607Z,100896.34
2022-10-24T20:26:22.968Z,100888.31
2022-10-24T20:29:26.846Z,100886.34
2022-10-24T20:32:30.472Z,100897.78
2022-10-24T20:35:34.486Z,100892.59
2022-10-24T20:38:39.484Z,100896.47
2022-10-24T20:41:43.678Z,100902.16
2022-10-24T20:44:47.324Z,100904.25
2022-10-24T20:47:50.979Z,100900.84
2022-10-24T20:50:54.642Z,100908.81
2022-10-24T20:53:59.715Z,100913.41
2022-10-24T20:57:03.376Z,100914.31
2022-10-24T21:00:08.768Z,100910.09
2022-10-24T21:03:14.363Z,100915.22
2022-10-24T21:06:21.592Z,100925.88
2022-10-24T21:09:26.913Z,100930.59
2022-10-24T21:12:32.023Z,100931.34
2022-10-24T21:15:35.651Z,100932.69
2022-10-24T21:18:39.543Z,100939.84
2022-10-24T21:21:43.111Z,100936.41
2022-10-24T21:24:48.239Z,100942.41
2022-10-24T21:27:51.811Z,100945.81
2022-10-24T21:30:55.365Z,100953.16
2022-10-24T21:33:59.039Z,100956.03
2022-10-24T21:37:03.260Z,100963.09
2022-10-24T21:40:09.755Z,100951.47
2022-10-24T21:43:13.296Z,100964.78
2022-10-24T21:46:19.688Z,100957.00
2022-10-24T21:49:23.381Z,100961.59
2022-10-24T21:52:27.008Z,100961.94
2022-10-24T21:55:32.049Z,100962.19
2022-10-24T21:58:36.194Z,100976.13
2022-10-24T22:01:40.760Z,100972.78
2022-10-24T22:04:44.454Z,100974.53
2022-10-24T22:07:49.723Z,100973.78
2022-10-24T22:11:03.607Z,100975.41
2022-10-24T22:14:08.028Z,100973.78
2022-10-24T22:17:11.715Z,100982.72
2022-10-24T22:20:15.499Z,100980.13
2022-10-24T22:23:19.455Z,100977.78
2022-10-24T22:26:25.458Z,100974.44
2022-10-24T22:29:29.291Z,100980.84
2022-10-24T22:32:33.409Z,100987.03
2022-10-24T22:35:38.364Z,100986.91
2022-10-24T22:38:43.346Z,100999.22
2022-10-24T22:41:50.006Z,100995.69
2022-10-24T22:44:54.541Z,100999.13
2022-10-24T22:48:16.321Z,100993.13
2022-10-24T22:51:22.622Z,100997.44
2022-10-24T22:54:32.657Z,101001.81
2022-10-24T22:57:38.500Z,101002.56
2022-10-24T23:00:42.850Z,101005.25
2022-10-24T23:04:03.967Z,100995.69
2022-10-24T23:07:23.724Z,101003.59
2022-10-24T23:10:30.180Z,101009.75
2022-10-24T23:13:36.218Z,101012.44
2022-10-24T23:16:49.933Z,101014.16
2022-10-24T23:19:55.459Z,101009.75
2022-10-24T23:23:15.791Z,101017.44
2022-10-24T23:26:37.467Z,101015.00
2022-10-24T23:29:45.145Z,101020.13
2022-10-24T23:32:51.752Z,101018.66
2022-10-24T23:35:59.936Z,101018.66
2022-10-24T23:39:04.539Z,101021.97
2022-10-24T23:42:10.292Z,101033.03
2022-10-24T23:45:17.844Z,101020.16
2022-10-24T23:48:48.463Z,101032.47
2022-10-24T23:52:05.788Z,101024.53
2022-10-24T23:55:13.692Z,101028.75
2022-10-24T23:58:17.369Z,101027.91
